createdAt,value
2023-12-12T00:01:22.949Z,3.10
2023-12-12T00:03:51.479Z,4.55
2023-12-12T00:06:19.735Z,3.13
2023-12-12T00:08:50.659Z,2.75
2023-12-12T00:11:20.041Z,2.60
2023-12-12T00:13:48.041Z,2.58
2023-12-12T00:16:16.152Z,2.30
2023-12-12T00:18:44.211Z,2.10
2023-12-12T00:21:12.229Z,2.35
2023-12-12T00:23:40.211Z,2.25
2023-12-12T00:26:08.870Z,1.88
2023-12-12T00:28:39.329Z,1.70
2023-12-12T00:31:07.557Z,2.30
2023-12-12T00:33:35.714Z,2.00
2023-12-12T00:36:03.819Z,2.40
2023-12-12T00:38:31.746Z,2.03
2023-12-12T00:40:59.676Z,2.00
2023-12-12T00:43:27.683Z,3.50
2023-12-12T00:45:57.137Z,2.03
2023-12-12T00:48:25.154Z,2.85
2023-12-12T00:50:53.106Z,4.05
2023-12-12T00:53:23.161Z,2.50
2023-12-12T00:55:51.046Z,2.30
2023-12-12T00:58:19.081Z,3.65
2023-12-12T01:00:47.201Z,2.55
2023-12-12T01:03:16.507Z,2.40
2023-12-12T01:05:44.544Z,3.03
2023-12-12T01:08:12.431Z,3.45
2023-12-12T01:10:40.311Z,3.00
2023-12-12T01:13:08.334Z,3.15
2023-12-12T01:15:38.373Z,3.08
2023-12-12T01:18:06.410Z,2.75
2023-12-12T01:20:36.214Z,2.72
2023-12-12T01:23:04.167Z,2.13
2023-12-12T01:25:32.710Z,3.45
2023-12-12T01:28:01.273Z,2.75
2023-12-12T01:30:29.108Z,2.88
2023-12-12T01:32:57.051Z,3.08
2023-12-12T01:35:24.977Z,2.55
2023-12-12T01:37:54.238Z,2.40
2023-12-12T01:40:22.178Z,2.75
2023-12-12T01:42:50.192Z,2.13
2023-12-12T01:45:20.013Z,1.80
2023-12-12T01:47:48.544Z,1.88
2023-12-12T01:50:16.626Z,1.88
2023-12-12T01:52:44.512Z,1.95
2023-12-12T01:55:14.195Z,2.67
2023-12-12T01:57:44.694Z,2.10
2023-12-12T02:00:14.178Z,1.70
2023-12-12T02:02:42.113Z,2.05
2023-12-12T02:05:10.976Z,2.00
2023-12-12T02:07:41.181Z,1.90
2023-12-12T02:10:09.949Z,2.17
2023-12-12T02:12:39.287Z,2.10
2023-12-12T02:15:08.442Z,1.90
2023-12-12T02:17:37.027Z,1.75
2023-12-12T02:20:06.340Z,2.13
2023-12-12T02:22:35.702Z,1.85
2023-12-12T02:25:03.821Z,1.83
2023-12-12T02:27:32.127Z,1.75
2023-12-12T02:30:00.308Z,2.10
2023-12-12T02:32:31.073Z,1.80
2023-12-12T02:34:59.034Z,2.22
2023-12-12T02:37:26.930Z,2.03
2023-12-12T02:39:56.240Z,1.95
2023-12-12T02:42:24.159Z,2.22
2023-12-12T02:44:54.605Z,1.85
2023-12-12T02:47:24.002Z,1.65
2023-12-12T02:49:52.176Z,1.70
2023-12-12T02:52:20.268Z,2.65
2023-12-12T02:54:48.261Z,1.75
2023-12-12T02:57:17.544Z,1.70
2023-12-12T02:59:45.484Z,2.10
2023-12-12T03:02:13.355Z,2.15
2023-12-12T03:04:45.475Z,1.73
2023-12-12T03:07:14.568Z,1.70
2023-12-12T03:09:42.541Z,1.90
2023-12-12T03:12:10.552Z,1.60
2023-12-12T03:14:40.314Z,1.85
2023-12-12T03:17:08.297Z,1.70
2023-12-12T03:19:36.464Z,1.55
2023-12-12T03:22:04.673Z,2.80
2023-12-12T03:24:32.862Z,1.70
2023-12-12T03:27:01.045Z,2.15
2023-12-12T03:29:31.623Z,2.95
2023-12-12T03:32:02.226Z,3.28
2023-12-12T03:34:32.323Z,1.83
2023-12-12T03:37:00.263Z,1.52
2023-12-12T03:39:28.129Z,1.75
2023-12-12T03:41:56.284Z,2.42
2023-12-12T03:44:24.250Z,1.65
2023-12-12T03:46:52.200Z,2.20
2023-12-12T03:49:23.708Z,2.40
2023-12-12T03:51:53.946Z,2.30
2023-12-12T03:54:22.071Z,2.42
2023-12-12T03:56:52.379Z,2.10
2023-12-12T03:59:20.371Z,2.17
2023-12-12T04:01:51.549Z,1.80
2023-12-12T04:04:19.933Z,1.70
2023-12-12T04:06:49.904Z,1.58
2023-12-12T04:09:17.844Z,2.10
2023-12-12T04:11:45.996Z,1.80
2023-12-12T04:14:14.289Z,1.92
2023-12-12T04:16:45.212Z,1.70
2023-12-12T04:19:13.302Z,1.40
2023-12-12T04:21:45.171Z,2.05
2023-12-12T04:24:14.545Z,2.13
2023-12-12T04:26:42.525Z,2.47
2023-12-12T04:29:10.651Z,2.00
2023-12-12T04:31:38.709Z,2.10
2023-12-12T04:34:06.803Z,2.20
2023-12-12T04:36:35.370Z,2.13
2023-12-12T04:39:04.016Z,2.40
2023-12-12T04:41:33.404Z,2.08
2023-12-12T04:44:01.284Z,2.30
2023-12-12T04:46:29.363Z,2.10
2023-12-12T04:49:01.778Z,1.73
2023-12-12T04:51:29.953Z,2.20
2023-12-12T04:53:58.493Z,2.25
2023-12-12T04:56:26.605Z,2.20
2023-12-12T04:58:55.934Z,2.22
2023-12-12T05:01:28.365Z,1.98
2023-12-12T05:03:56.566Z,1.67
2023-12-12T05:06:27.075Z,1.50
2023-12-12T05:08:55.049Z,2.00
2023-12-12T05:11:23.080Z,2.08
2023-12-12T05:13:51.166Z,2.60
2023-12-12T05:16:29.045Z,2.15
2023-12-12T05:19:00.637Z,2.53
2023-12-12T05:21:28.979Z,2.38
2023-12-12T05:23:57.465Z,2.47
2023-12-12T05:26:28.449Z,2.22
2023-12-12T05:28:59.010Z,2.30
2023-12-12T05:31:31.035Z,2.30
2023-12-12T05:33:59.217Z,2.08
2023-12-12T05:36:28.765Z,3.00
2023-12-12T05:38:56.725Z,3.13
2023-12-12T05:41:24.719Z,2.10
2023-12-12T05:43:52.660Z,2.03
2023-12-12T05:46:20.698Z,2.47
2023-12-12T05:48:52.541Z,4.47
2023-12-12T05:51:21.125Z,4.45
2023-12-12T05:53:49.181Z,3.08
2023-12-12T05:56:18.919Z,3.85
2023-12-12T05:58:46.986Z,2.80
2023-12-12T06:01:18.805Z,2.95
2023-12-12T06:03:47.151Z,2.80
2023-12-12T06:06:21.946Z,3.25
2023-12-12T06:08:52.793Z,3.10
2023-12-12T06:11:22.527Z,2.83
2023-12-12T06:13:50.633Z,3.35
2023-12-12T06:16:19.140Z,3.10
2023-12-12T06:18:47.735Z,4.22
2023-12-12T06:21:15.710Z,4.00
2023-12-12T06:23:45.024Z,4.00
2023-12-12T06:26:12.887Z,4.50
2023-12-12T06:28:40.914Z,4.68
2023-12-12T06:31:09.648Z,3.33
2023-12-12T06:33:39.584Z,4.65
2023-12-12T06:36:08.748Z,4.60
2023-12-12T06:38:36.707Z,4.18
2023-12-12T06:41:06.357Z,4.25
2023-12-12T06:43:34.382Z,3.88
2023-12-12T06:46:02.375Z,3.53
2023-12-12T06:48:30.440Z,4.70
2023-12-12T06:50:58.418Z,4.47
2023-12-12T06:53:26.381Z,3.92
2023-12-12T06:55:55.699Z,4.40
2023-12-12T06:58:25.839Z,4.35
2023-12-12T07:00:53.939Z,3.78
2023-12-12T07:03:23.143Z,4.05
2023-12-12T07:05:52.440Z,3.15
2023-12-12T07:08:20.482Z,3.28
2023-12-12T07:10:48.727Z,3.38
2023-12-12T07:13:16.860Z,2.95
2023-12-12T07:15:46.145Z,4.45
2023-12-12T07:18:15.455Z,3.60
2023-12-12T07:20:45.809Z,4.15
2023-12-12T07:23:16.763Z,2.95
2023-12-12T07:25:47.247Z,3.17
2023-12-12T07:28:15.223Z,3.65
2023-12-12T07:30:47.716Z,2.85
2023-12-12T07:33:15.839Z,4.80
2023-12-12T07:35:43.825Z,3.45
2023-12-12T07:38:11.793Z,3.13
2023-12-12T07:40:40.056Z,3.03
2023-12-12T07:43:08.594Z,3.75
2023-12-12T07:45:36.664Z,3.88
2023-12-12T07:48:06.728Z,3.75
2023-12-12T07:50:34.751Z,2.97
2023-12-12T07:53:02.660Z,3.53
2023-12-12T07:55:30.684Z,3.92
2023-12-12T07:57:58.573Z,3.28
2023-12-12T08:00:27.358Z,2.70
2023-12-12T08:02:55.408Z,3.50
2023-12-12T08:05:24.687Z,4.30
2023-12-12T08:07:52.603Z,4.03
2023-12-12T08:10:20.959Z,4.18
2023-12-12T08:12:50.420Z,4.18
2023-12-12T08:15:21.110Z,3.92
2023-12-12T08:17:50.414Z,3.95
2023-12-12T08:20:18.787Z,2.67
2023-12-12T08:22:50.621Z,3.03
2023-12-12T08:25:22.843Z,3.50
2023-12-12T08:27:51.017Z,3.22
2023-12-12T08:30:19.076Z,3.70
2023-12-12T08:32:47.838Z,3.60
2023-12-12T08:35:15.998Z,3.70
2023-12-12T08:37:43.979Z,3.67
2023-12-12T08:40:13.522Z,3.28
2023-12-12T08:42:41.724Z,3.67
2023-12-12T08:45:10.979Z,4.13
2023-12-12T08:47:39.664Z,3.15
2023-12-12T08:50:10.500Z,3.55
2023-12-12T08:52:38.816Z,3.22
2023-12-12T08:55:11.958Z,3.85
2023-12-12T08:57:41.842Z,3.08
2023-12-12T09:00:12.200Z,2.95
2023-12-12T09:02:40.227Z,3.35
2023-12-12T09:05:09.652Z,4.07
2023-12-12T09:07:37.976Z,4.15
2023-12-12T09:10:07.126Z,3.85
2023-12-12T09:12:35.291Z,3.05
2023-12-12T09:15:06.973Z,4.22
2023-12-12T09:17:35.346Z,3.40
2023-12-12T09:20:04.288Z,3.90
2023-12-12T09:22:33.107Z,3.20
2023-12-12T09:25:01.296Z,3.67
2023-12-12T09:27:32.266Z,3.25
2023-12-12T09:30:00.507Z,3.53
2023-12-12T09:32:29.986Z,3.10
2023-12-12T09:34:57.936Z,3.25
2023-12-12T09:37:26.290Z,3.83
2023-12-12T09:39:54.298Z,3.63
2023-12-12T09:42:26.532Z,3.70
2023-12-12T09:44:59.956Z,3.08
2023-12-12T09:47:30.252Z,3.03
2023-12-12T09:50:08.321Z,2.80
2023-12-12T09:52:37.991Z,2.08
2023-12-12T09:55:07.412Z,2.95
2023-12-12T09:57:36.084Z,2.55
2023-12-12T10:00:05.630Z,2.65
2023-12-12T10:02:37.717Z,2.40
2023-12-12T10:05:06.774Z,2.83
2023-12-12T10:07:36.673Z,2.63
2023-12-12T10:10:08.470Z,2.40
2023-12-12T10:12:37.789Z,3.13
2023-12-12T10:15:26.161Z,3.42
2023-12-12T10:18:00.569Z,2.53
2023-12-12T10:20:31.998Z,3.65
2023-12-12T10:23:01.920Z,3.42
2023-12-12T10:25:38.432Z,2.80
2023-12-12T10:28:08.602Z,3.05
2023-12-12T10:30:38.331Z,2.50
2023-12-12T10:33:12.450Z,2.88
2023-12-12T10:35:50.243Z,2.97
2023-12-12T10:38:38.641Z,3.70
2023-12-12T10:41:21.551Z,3.47
2023-12-12T10:43:51.976Z,4.88
2023-12-12T10:46:21.903Z,4.22
2023-12-12T10:48:54.643Z,3.95
2023-12-12T10:51:23.324Z,3.50
2023-12-12T10:53:55.891Z,3.97
2023-12-12T10:56:24.573Z,3.80
2023-12-12T10:58:53.699Z,3.45
2023-12-12T11:01:23.024Z,3.35
2023-12-12T11:03:55.074Z,5.28
2023-12-12T11:06:24.882Z,4.18
2023-12-12T11:08:54.047Z,4.13
2023-12-12T11:11:25.208Z,3.80
2023-12-12T11:13:54.327Z,4.05
2023-12-12T11:16:23.256Z,3.80
2023-12-12T11:18:56.404Z,2.78
2023-12-12T11:21:55.127Z,3.05
2023-12-12T11:24:23.211Z,3.47
2023-12-12T11:26:55.153Z,3.00
2023-12-12T11:29:26.629Z,3.90
2023-12-12T11:32:03.045Z,3.00
2023-12-12T11:34:39.455Z,2.90
2023-12-12T11:37:09.912Z,3.08
2023-12-12T11:39:50.774Z,2.83
2023-12-12T11:42:20.382Z,3.22
2023-12-12T11:44:50.529Z,2.60
2023-12-12T11:47:21.806Z,2.40
2023-12-12T11:49:52.117Z,2.10
2023-12-12T11:52:51.260Z,2.42
2023-12-12T11:55:24.634Z,2.08
2023-12-12T11:58:00.674Z,1.60
2023-12-12T12:00:33.763Z,1.48
2023-12-12T12:03:02.737Z,1.52
2023-12-12T12:05:33.438Z,1.75
2023-12-12T12:08:03.144Z,1.50
2023-12-12T12:10:31.483Z,1.77
2023-12-12T12:13:00.471Z,1.63
2023-12-12T12:15:29.211Z,2.65
2023-12-12T12:17:58.961Z,2.42
2023-12-12T12:20:27.696Z,1.80
2023-12-12T12:22:57.545Z,2.40
2023-12-12T12:25:28.592Z,2.47
2023-12-12T12:27:57.904Z,1.50
2023-12-12T12:30:27.220Z,1.60
2023-12-12T12:33:03.732Z,1.15
2023-12-12T12:35:32.878Z,1.45
2023-12-12T12:38:03.760Z,1.20
2023-12-12T12:40:37.657Z,1.40
2023-12-12T12:43:16.761Z,1.27
2023-12-12T12:45:46.352Z,1.40
2023-12-12T12:48:18.061Z,1.42
2023-12-12T12:53:20.404Z,2.30
2023-12-12T12:55:56.323Z,3.92
2023-12-12T12:58:26.543Z,2.67
2023-12-12T13:00:56.773Z,3.15
2023-12-12T13:03:25.194Z,3.65
2023-12-12T13:05:54.534Z,2.58
2023-12-12T13:08:24.306Z,2.50
2023-12-12T13:10:53.694Z,3.95
2023-12-12T13:13:22.618Z,2.85
2023-12-12T13:15:51.735Z,2.30
2023-12-12T13:18:20.115Z,3.88
2023-12-12T13:20:51.723Z,2.13
2023-12-12T13:23:19.766Z,1.92
2023-12-12T13:25:49.427Z,4.60
2023-12-12T13:28:17.522Z,3.10
2023-12-12T13:30:48.136Z,4.60
2023-12-12T13:33:16.425Z,3.13
2023-12-12T13:38:13.104Z,2.90
2023-12-12T13:40:42.451Z,2.35
2023-12-12T13:43:12.080Z,2.75
2023-12-12T13:45:40.711Z,2.10
2023-12-12T13:48:09.801Z,2.47
2023-12-12T13:50:40.160Z,2.10
2023-12-12T13:53:08.152Z,2.72
2023-12-12T13:55:36.524Z,2.65
2023-12-12T13:58:04.788Z,2.05
2023-12-12T14:00:34.091Z,2.20
2023-12-12T14:03:02.011Z,2.13
2023-12-12T14:05:30.241Z,2.67
2023-12-12T14:07:59.333Z,2.20
2023-12-12T14:10:27.395Z,2.35
2023-12-12T14:12:55.597Z,3.10
2023-12-12T14:15:23.634Z,2.80
2023-12-12T14:17:55.476Z,2.72
2023-12-12T14:20:23.449Z,2.25
2023-12-12T14:25:22.507Z,2.45
2023-12-12T14:27:52.787Z,2.40
2023-12-12T14:30:27.109Z,2.05
2023-12-12T14:32:59.639Z,3.10
2023-12-12T14:35:30.941Z,1.95
2023-12-12T14:37:58.963Z,2.08
2023-12-12T14:40:28.016Z,2.60
2023-12-12T14:42:56.096Z,2.00
2023-12-12T14:45:24.420Z,2.00
2023-12-12T14:47:53.444Z,1.80
2023-12-12T14:50:22.919Z,1.90
2023-12-12T14:52:50.912Z,1.70
2023-12-12T14:55:18.937Z,2.33
2023-12-12T14:57:47.680Z,2.05
2023-12-12T15:00:23.534Z,2.63
2023-12-12T15:02:55.017Z,2.70
2023-12-12T15:05:24.816Z,2.60
2023-12-12T15:07:53.023Z,2.35
2023-12-12T15:10:21.182Z,2.40
2023-12-12T15:12:49.292Z,1.90
2023-12-12T15:15:18.094Z,2.33
2023-12-12T15:18:10.017Z,2.97
2023-12-12T15:20:47.338Z,2.00
2023-12-12T15:23:15.408Z,2.15
2023-12-12T15:25:45.530Z,2.95
2023-12-12T15:28:24.909Z,3.15
2023-12-12T15:31:05.501Z,3.05
2023-12-12T15:33:37.083Z,2.80
2023-12-12T15:36:08.776Z,2.30
2023-12-12T15:38:37.356Z,2.40
2023-12-12T15:41:06.425Z,2.35
2023-12-12T15:43:35.496Z,2.80
2023-12-12T15:46:03.842Z,2.20
2023-12-12T15:48:32.117Z,2.40
2023-12-12T15:51:00.304Z,2.90
2023-12-12T15:53:29.886Z,2.13
2023-12-12T15:55:59.261Z,2.72
2023-12-12T15:58:27.376Z,2.13
2023-12-12T16:00:55.509Z,2.90
2023-12-12T16:03:23.736Z,2.55
2023-12-12T16:05:51.770Z,2.83
2023-12-12T16:08:19.704Z,2.72
2023-12-12T16:10:49.345Z,2.50
2023-12-12T16:13:17.371Z,3.30
2023-12-12T16:15:46.095Z,2.83
2023-12-12T16:18:17.187Z,2.50
2023-12-12T16:20:45.344Z,2.72
2023-12-12T16:23:13.402Z,3.40
2023-12-12T16:25:41.558Z,3.63
2023-12-12T16:28:11.042Z,3.30
2023-12-12T16:30:40.887Z,3.20
2023-12-12T16:33:58.879Z,3.13
2023-12-12T16:36:43.337Z,2.60
2023-12-12T16:39:12.454Z,2.97
2023-12-12T16:41:51.679Z,3.17
2023-12-12T16:44:23.231Z,2.08
2023-12-12T16:46:52.485Z,3.13
2023-12-12T16:49:21.302Z,2.92
2023-12-12T16:51:49.836Z,2.58
2023-12-12T16:54:18.119Z,2.92
2023-12-12T16:57:02.684Z,2.58
2023-12-12T16:59:42.028Z,2.90
2023-12-12T17:02:14.722Z,2.53
2023-12-12T17:04:45.479Z,2.58
2023-12-12T17:07:13.723Z,3.50
2023-12-12T17:09:41.835Z,3.40
2023-12-12T17:12:09.997Z,3.28
2023-12-12T17:14:39.464Z,5.70
2023-12-12T17:17:07.518Z,7.78
2023-12-12T17:19:36.250Z,4.90
2023-12-12T17:22:06.376Z,4.75
2023-12-12T17:24:34.782Z,3.42
2023-12-12T17:27:02.931Z,4.28
2023-12-12T17:29:33.720Z,3.90
2023-12-12T17:32:03.666Z,4.35
2023-12-12T17:34:32.115Z,3.50
2023-12-12T17:37:00.345Z,3.03
2023-12-12T17:39:28.415Z,4.78
2023-12-12T17:41:56.586Z,4.05
2023-12-12T17:44:24.710Z,4.70
2023-12-12T17:46:52.905Z,10.00
2023-12-12T17:49:24.642Z,6.57
2023-12-12T17:51:55.621Z,6.28
2023-12-12T17:54:23.982Z,7.65
2023-12-12T17:56:52.093Z,5.18
2023-12-12T17:59:20.274Z,4.68
2023-12-12T18:01:48.482Z,4.20
2023-12-12T18:04:15.609Z,4.15
2023-12-12T18:06:45.760Z,3.25
2023-12-12T18:09:14.299Z,3.42
2023-12-12T18:11:43.436Z,3.33
2023-12-12T18:14:11.626Z,3.22
2023-12-12T18:16:39.940Z,3.05
2023-12-12T18:19:08.391Z,2.40
2023-12-12T18:21:37.252Z,3.17
2023-12-12T18:24:16.157Z,3.70
2023-12-12T18:26:53.135Z,4.32
2023-12-12T18:29:23.471Z,5.30
2023-12-12T18:31:51.663Z,6.10
2023-12-12T18:34:19.905Z,4.00
2023-12-12T18:36:48.398Z,3.65
2023-12-12T18:39:18.015Z,4.18
2023-12-12T18:41:52.490Z,4.93
2023-12-12T18:44:22.035Z,3.75
2023-12-12T18:46:50.655Z,3.95
2023-12-12T18:49:19.644Z,8.10
2023-12-12T18:51:49.841Z,5.22
2023-12-12T18:54:23.813Z,5.22
2023-12-12T18:56:53.516Z,4.10
2023-12-12T18:59:22.601Z,5.13
2023-12-12T19:01:54.193Z,4.25
2023-12-12T19:04:24.236Z,3.72
2023-12-12T19:07:00.537Z,3.70
2023-12-12T19:09:31.049Z,3.67
2023-12-12T19:12:00.165Z,4.60
2023-12-12T19:14:28.237Z,3.75
2023-12-12T19:16:57.166Z,3.10
2023-12-12T19:19:25.486Z,2.65
2023-12-12T19:21:54.961Z,2.88
2023-12-12T19:24:27.635Z,3.30
2023-12-12T19:26:58.576Z,2.77
2023-12-12T19:29:30.096Z,2.90
2023-12-12T19:31:59.758Z,2.72
2023-12-12T19:34:29.269Z,3.05
2023-12-12T19:36:58.161Z,2.75
2023-12-12T19:39:28.981Z,2.28
2023-12-12T19:41:58.512Z,2.20
2023-12-12T19:44:30.874Z,2.83
2023-12-12T19:47:02.058Z,2.47
2023-12-12T19:49:31.438Z,3.00
2023-12-12T19:52:04.031Z,2.47
2023-12-12T19:54:33.433Z,2.25
2023-12-12T19:57:03.636Z,2.67
2023-12-12T19:59:31.931Z,2.50
2023-12-12T20:02:00.606Z,2.47
2023-12-12T20:04:31.141Z,2.20
2023-12-12T20:07:00.060Z,2.15
2023-12-12T20:09:29.269Z,1.80
2023-12-12T20:11:57.953Z,3.13
2023-12-12T20:14:32.252Z,2.70
2023-12-12T20:17:00.232Z,2.55
2023-12-12T20:19:28.826Z,2.58
2023-12-12T20:21:56.960Z,2.20
2023-12-12T20:24:25.541Z,2.85
2023-12-12T20:26:53.780Z,2.55
2023-12-12T20:29:21.871Z,2.50
2023-12-12T20:31:51.980Z,2.75
2023-12-12T20:34:24.589Z,2.30
2023-12-12T20:36:56.408Z,2.75
2023-12-12T20:39:25.741Z,2.22
2023-12-12T20:41:54.701Z,2.67
2023-12-12T20:44:23.217Z,2.55
2023-12-12T20:46:53.044Z,2.90
2023-12-12T20:49:23.995Z,3.03
2023-12-12T20:51:55.085Z,2.70
2023-12-12T20:54:25.853Z,2.65
2023-12-12T20:56:56.373Z,3.13
2023-12-12T20:59:26.113Z,2.25
2023-12-12T21:01:55.567Z,2.17
2023-12-12T21:04:23.630Z,2.03
2023-12-12T21:06:54.300Z,2.10
2023-12-12T21:09:22.928Z,1.83
2023-12-12T21:11:50.877Z,2.35
2023-12-12T21:14:18.998Z,1.70
2023-12-12T21:16:46.957Z,2.13
2023-12-12T21:19:16.586Z,2.40
2023-12-12T21:21:44.792Z,1.80
2023-12-12T21:24:12.877Z,2.22
2023-12-12T21:26:41.807Z,2.30
2023-12-12T21:29:09.757Z,2.00
2023-12-12T21:31:40.007Z,2.03
2023-12-12T21:34:08.492Z,2.15
2023-12-12T21:36:39.143Z,1.90
2023-12-12T21:39:09.358Z,2.15
2023-12-12T21:41:40.212Z,2.17
2023-12-12T21:44:08.256Z,2.15
2023-12-12T21:46:36.427Z,1.90
2023-12-12T21:49:04.495Z,1.95
2023-12-12T21:51:32.608Z,1.63
2023-12-12T21:54:01.949Z,2.17
2023-12-12T21:56:29.914Z,1.90
2023-12-12T21:58:58.659Z,1.80
2023-12-12T22:01:27.232Z,2.08
2023-12-12T22:04:00.014Z,1.85
2023-12-12T22:06:28.052Z,2.03
2023-12-12T22:08:57.668Z,1.85
2023-12-12T22:11:27.620Z,1.80
2023-12-12T22:13:58.053Z,1.50
2023-12-12T22:16:29.311Z,1.38
2023-12-12T22:18:59.696Z,1.48
2023-12-12T22:21:29.718Z,1.67
2023-12-12T22:23:57.674Z,1.15
2023-12-12T22:26:29.217Z,1.30
2023-12-12T22:28:57.491Z,1.25
2023-12-12T22:31:25.477Z,1.50
2023-12-12T22:33:54.106Z,1.27
2023-12-12T22:36:24.388Z,1.30
2023-12-12T22:38:53.666Z,1.10
2023-12-12T22:41:22.408Z,1.20
2023-12-12T22:43:51.966Z,1.10
2023-12-12T22:46:20.784Z,1.30
2023-12-12T22:48:49.250Z,1.38
2023-12-12T22:51:17.838Z,1.25
2023-12-12T22:53:47.714Z,1.10
2023-12-12T22:56:16.769Z,1.33
2023-12-12T22:58:45.747Z,1.08
2023-12-12T23:01:15.534Z,1.77
2023-12-12T23:03:43.620Z,1.45
2023-12-12T23:06:11.847Z,1.15
2023-12-12T23:08:40.168Z,0.95
2023-12-12T23:11:08.672Z,1.42
2023-12-12T23:13:37.340Z,1.95
2023-12-12T23:16:05.883Z,1.00
2023-12-12T23:18:36.381Z,1.23
2023-12-12T23:21:04.961Z,1.40
2023-12-12T23:23:35.036Z,1.40
2023-12-12T23:26:03.607Z,1.20
2023-12-12T23:28:31.872Z,1.23
2023-12-12T23:31:07.498Z,1.13
2023-12-12T23:33:39.899Z,1.20
2023-12-12T23:36:09.751Z,1.45
2023-12-12T23:38:38.666Z,1.20
2023-12-12T23:41:08.151Z,1.70
2023-12-12T23:43:37.730Z,1.20
2023-12-12T23:46:06.647Z,1.60
2023-12-12T23:48:35.223Z,1.42
2023-12-12T23:51:04.927Z,1.10
2023-12-12T23:53:34.724Z,1.40
2023-12-12T23:56:03.376Z,1.60
2023-12-12T23:58:32.100Z,1.63
